createdAt,value
2017-05-07T00:01:12.822Z,37.08
2017-05-07T00:02:12.338Z,36.98
2017-05-07T00:03:12.580Z,36.98
2017-05-07T00:04:12.521Z,36.98
2017-05-07T00:05:12.455Z,36.88
2017-05-07T00:06:12.496Z,36.88
2017-05-07T00:07:12.334Z,37.08
2017-05-07T00:08:12.278Z,36.98
2017-05-07T00:09:12.208Z,36.88
2017-05-07T00:10:12.144Z,36.88
2017-05-07T00:11:12.082Z,36.88
2017-05-07T00:12:12.021Z,36.88
2017-05-07T00:13:11.962Z,37.06
2017-05-07T00:14:11.595Z,36.98
2017-05-07T00:15:11.835Z,36.96
2017-05-07T00:16:11.774Z,37.08
2017-05-07T00:17:11.709Z,36.88
2017-05-07T00:18:11.653Z,36.88
2017-05-07T00:19:11.586Z,36.98
2017-05-07T00:20:11.525Z,37.08
2017-05-07T00:21:11.495Z,37.08
2017-05-07T00:22:11.430Z,37.08
2017-05-07T00:23:11.341Z,36.98
2017-05-07T00:24:11.003Z,37.08
2017-05-07T00:25:11.219Z,36.98
2017-05-07T00:26:11.155Z,37.08
2017-05-07T00:27:11.094Z,36.98
2017-05-07T00:28:11.031Z,36.98
2017-05-07T00:29:10.968Z,37.27
2017-05-07T00:30:10.601Z,37.08
2017-05-07T00:31:10.843Z,37.08
2017-05-07T00:32:10.481Z,37.17
2017-05-07T00:33:10.719Z,37.08
2017-05-07T00:34:10.658Z,37.08
2017-05-07T00:35:10.597Z,36.98
2017-05-07T00:36:10.233Z,37.08
2017-05-07T00:37:10.168Z,36.96
2017-05-07T00:38:10.412Z,36.98
2017-05-07T00:39:10.349Z,36.98
2017-05-07T00:40:10.285Z,37.06
2017-05-07T00:41:09.920Z,36.98
2017-05-07T00:42:10.163Z,37.08
2017-05-07T00:43:10.099Z,37.08
2017-05-07T00:44:10.041Z,37.08
2017-05-07T00:45:09.976Z,36.88
2017-05-07T00:46:09.612Z,37.08
2017-05-07T00:47:09.551Z,37.08
2017-05-07T00:48:09.490Z,37.08
2017-05-07T00:49:09.429Z,37.08
2017-05-07T00:50:09.666Z,36.98
2017-05-07T00:51:09.304Z,37.08
2017-05-07T00:52:09.545Z,36.98
2017-05-07T00:53:09.178Z,37.17
2017-05-07T00:54:09.116Z,37.08
2017-05-07T00:55:09.357Z,37.17
2017-05-07T00:56:09.295Z,37.08
2017-05-07T00:57:09.237Z,37.08
2017-05-07T00:58:09.173Z,37.08
2017-05-07T00:59:09.105Z,37.08
2017-05-07T01:00:08.743Z,37.08
2017-05-07T01:01:08.985Z,37.08
2017-05-07T01:02:08.920Z,37.17
2017-05-07T01:03:08.857Z,37.17
2017-05-07T01:04:08.796Z,37.08
2017-05-07T01:05:08.739Z,37.08
2017-05-07T01:06:08.677Z,37.37
2017-05-07T01:07:08.612Z,37.17
2017-05-07T01:08:08.551Z,37.17
2017-05-07T01:09:08.490Z,37.08
2017-05-07T01:10:08.443Z,37.37
2017-05-07T01:11:08.067Z,37.08
2017-05-07T01:12:08.306Z,37.17
2017-05-07T01:13:08.242Z,37.17
2017-05-07T01:14:08.175Z,37.08
2017-05-07T01:15:08.122Z,37.08
2017-05-07T01:16:08.056Z,37.08
2017-05-07T01:17:07.995Z,37.27
2017-05-07T01:18:07.935Z,37.27
2017-05-07T01:19:07.869Z,37.17
2017-05-07T01:20:07.807Z,37.17
2017-05-07T01:21:07.749Z,37.17
2017-05-07T01:22:07.685Z,37.17
2017-05-07T01:23:07.621Z,37.27
2017-05-07T01:24:07.561Z,37.08
2017-05-07T01:25:07.498Z,37.08
2017-05-07T01:26:07.435Z,37.08
2017-05-07T01:27:07.374Z,37.17
2017-05-07T01:28:07.409Z,37.17
2017-05-07T01:29:07.255Z,37.17
2017-05-07T01:30:07.188Z,37.17
2017-05-07T01:31:07.125Z,37.27
2017-05-07T01:32:06.763Z,37.27
2017-05-07T01:33:07.003Z,37.08
2017-05-07T01:34:06.939Z,37.08
2017-05-07T01:35:06.880Z,37.27
2017-05-07T01:36:06.820Z,37.27
2017-05-07T01:37:06.755Z,37.27
2017-05-07T01:38:06.696Z,37.27
2017-05-07T01:39:06.633Z,37.27
2017-05-07T01:40:06.569Z,37.08
2017-05-07T01:41:06.510Z,37.27
2017-05-07T01:42:06.447Z,37.17
2017-05-07T01:43:06.384Z,37.17
2017-05-07T01:44:06.321Z,37.27
2017-05-07T01:45:05.956Z,37.27
2017-05-07T01:46:06.207Z,37.37
2017-05-07T01:47:05.831Z,37.17
2017-05-07T01:48:05.770Z,37.08
2017-05-07T01:49:06.012Z,37.27
2017-05-07T01:50:05.647Z,37.08
2017-05-07T01:51:05.886Z,37.08
2017-05-07T01:52:05.825Z,37.17
2017-05-07T01:53:05.768Z,37.17
2017-05-07T01:54:05.704Z,37.17
2017-05-07T01:55:05.336Z,37.27
2017-05-07T01:56:05.579Z,37.08
2017-05-07T01:57:05.511Z,37.27
2017-05-07T01:58:05.455Z,37.15
2017-05-07T01:59:05.394Z,37.17
2017-05-07T02:00:05.329Z,37.08
2017-05-07T02:01:05.266Z,36.98
2017-05-07T02:02:05.213Z,36.98
2017-05-07T02:03:05.144Z,37.27
2017-05-07T02:04:05.080Z,37.08
2017-05-07T02:05:05.021Z,36.98
2017-05-07T02:06:04.958Z,37.08
2017-05-07T02:07:04.897Z,37.08
2017-05-07T02:08:04.832Z,37.08
2017-05-07T02:09:04.771Z,36.98
2017-05-07T02:10:04.711Z,37.08
2017-05-07T02:11:04.650Z,36.98
2017-05-07T02:12:04.585Z,37.27
2017-05-07T02:13:04.521Z,36.98
2017-05-07T02:14:04.714Z,36.98
2017-05-07T02:15:04.399Z,37.27
2017-05-07T02:16:04.341Z,37.27
2017-05-07T02:17:04.272Z,37.17
2017-05-07T02:18:04.213Z,36.98
2017-05-07T02:19:04.153Z,37.27
2017-05-07T02:20:04.088Z,37.08
2017-05-07T02:21:04.028Z,37.08
2017-05-07T02:22:03.964Z,37.17
2017-05-07T02:23:03.910Z,37.27
2017-05-07T02:24:03.842Z,37.27
2017-05-07T02:25:03.778Z,37.25
2017-05-07T02:26:03.718Z,36.98
2017-05-07T02:27:03.653Z,37.08
2017-05-07T02:28:03.594Z,37.08
2017-05-07T02:29:03.533Z,37.06
2017-05-07T02:30:03.469Z,37.08
2017-05-07T02:31:03.409Z,36.98
2017-05-07T02:32:03.350Z,37.08
2017-05-07T02:33:03.285Z,37.27
2017-05-07T02:34:03.221Z,37.08
2017-05-07T02:35:03.157Z,37.08
2017-05-07T02:36:03.100Z,37.08
2017-05-07T02:37:03.037Z,37.08
2017-05-07T02:38:02.974Z,37.08
2017-05-07T02:39:02.908Z,36.88
2017-05-07T02:40:02.846Z,36.98
2017-05-07T02:41:02.786Z,37.08
2017-05-07T02:42:02.725Z,37.17
2017-05-07T02:43:02.662Z,37.08
2017-05-07T02:44:02.601Z,36.98
2017-05-07T02:45:02.638Z,36.87
2017-05-07T02:46:02.511Z,36.98
2017-05-07T02:47:02.417Z,37.08
2017-05-07T02:48:02.352Z,36.88
2017-05-07T02:49:02.296Z,36.98
2017-05-07T02:50:02.229Z,36.88
2017-05-07T02:51:02.168Z,36.88
2017-05-07T02:52:02.105Z,37.08
2017-05-07T02:53:02.049Z,36.79
2017-05-07T02:54:01.982Z,36.88
2017-05-07T02:55:01.920Z,36.88
2017-05-07T02:56:01.857Z,36.98
2017-05-07T02:57:01.792Z,36.88
2017-05-07T02:58:01.732Z,37.06
2017-05-07T02:59:01.672Z,37.08
2017-05-07T03:00:01.613Z,36.98
2017-05-07T03:01:01.553Z,36.98
2017-05-07T03:02:01.185Z,36.88
2017-05-07T03:03:01.421Z,36.88
2017-05-07T03:04:01.361Z,36.79
2017-05-07T03:05:01.301Z,37.08
2017-05-07T03:06:01.236Z,36.88
2017-05-07T03:07:01.175Z,36.79
2017-05-07T03:08:01.114Z,36.88
2017-05-07T03:09:01.058Z,36.98
2017-05-07T03:10:00.988Z,36.98
2017-05-07T03:11:00.928Z,36.88
2017-05-07T03:12:00.864Z,36.88
2017-05-07T03:13:00.804Z,36.98
2017-05-07T03:14:00.743Z,36.88
2017-05-07T03:15:00.679Z,36.98
2017-05-07T03:16:00.626Z,37.08
2017-05-07T03:17:00.559Z,36.98
2017-05-07T03:18:00.499Z,36.88
2017-05-07T03:19:00.431Z,36.88
2017-05-07T03:20:00.371Z,36.96
2017-05-07T03:21:00.305Z,36.77
2017-05-07T03:22:00.244Z,36.88
2017-05-07T03:23:00.194Z,36.79
2017-05-07T03:24:00.120Z,36.98
2017-05-07T03:25:00.057Z,36.98
2017-05-07T03:25:59.998Z,36.98
2017-05-07T03:26:59.937Z,36.96
2017-05-07T03:27:59.878Z,36.88
2017-05-07T03:28:59.812Z,36.88
2017-05-07T03:29:59.749Z,37.17
2017-05-07T03:30:59.687Z,36.88
2017-05-07T03:31:59.633Z,36.88
2017-05-07T03:32:59.572Z,36.88
2017-05-07T03:33:59.499Z,36.79
2017-05-07T03:34:59.439Z,37.17
2017-05-07T03:35:59.379Z,37.17
2017-05-07T03:36:59.315Z,36.98
2017-05-07T03:37:59.252Z,36.98
2017-05-07T03:38:59.192Z,37.17
2017-05-07T03:39:59.129Z,36.98
2017-05-07T03:40:59.071Z,37.06
2017-05-07T03:41:59.009Z,37.08
2017-05-07T03:42:58.946Z,36.87
2017-05-07T03:43:58.883Z,37.08
2017-05-07T03:44:58.821Z,36.98
2017-05-07T03:45:58.757Z,36.88
2017-05-07T03:46:58.697Z,37.08
2017-05-07T03:47:58.640Z,36.88
2017-05-07T03:48:58.574Z,36.88
2017-05-07T03:49:58.513Z,36.87
2017-05-07T03:50:58.451Z,36.96
2017-05-07T03:51:58.383Z,37.08
2017-05-07T03:52:58.328Z,37.17
2017-05-07T03:53:58.262Z,37.08
2017-05-07T03:54:58.201Z,37.08
2017-05-07T03:55:58.136Z,36.98
2017-05-07T03:56:58.075Z,36.98
2017-05-07T03:57:58.017Z,36.88
2017-05-07T03:58:57.955Z,36.79
2017-05-07T03:59:57.890Z,36.98
2017-05-07T04:00:57.825Z,36.87
2017-05-07T04:01:57.773Z,36.79
2017-05-07T04:02:57.704Z,36.98
2017-05-07T04:03:57.639Z,37.08
2017-05-07T04:04:57.593Z,37.08
2017-05-07T04:05:57.517Z,36.98
2017-05-07T04:06:57.454Z,36.88
2017-05-07T04:07:57.396Z,36.88
2017-05-07T04:08:57.333Z,37.08
2017-05-07T04:09:57.273Z,36.88
2017-05-07T04:10:57.208Z,36.79
2017-05-07T04:11:57.144Z,36.98
2017-05-07T04:12:57.091Z,37.17
2017-05-07T04:13:57.027Z,37.08
2017-05-07T04:14:56.958Z,37.08
2017-05-07T04:15:56.894Z,36.77
2017-05-07T04:16:56.835Z,37.08
2017-05-07T04:17:56.772Z,36.88
2017-05-07T04:18:56.711Z,36.87
2017-05-07T04:19:56.650Z,36.79
2017-05-07T04:20:56.587Z,36.79
2017-05-07T04:21:56.524Z,36.88
2017-05-07T04:22:56.462Z,36.67
2017-05-07T04:23:56.401Z,36.98
2017-05-07T04:24:56.338Z,36.88
2017-05-07T04:25:56.277Z,36.79
2017-05-07T04:26:56.213Z,36.69
2017-05-07T04:27:56.151Z,36.98
2017-05-07T04:28:56.091Z,36.87
2017-05-07T04:29:56.031Z,36.98
2017-05-07T04:30:55.966Z,36.88
2017-05-07T04:31:55.908Z,36.98
2017-05-07T04:32:55.843Z,36.77
2017-05-07T04:33:55.779Z,36.98
2017-05-07T04:34:55.718Z,36.79
2017-05-07T04:35:55.655Z,37.17
2017-05-07T04:36:55.594Z,36.69
2017-05-07T04:37:55.540Z,36.88
2017-05-07T04:38:55.483Z,36.69
2017-05-07T04:39:55.413Z,36.88
2017-05-07T04:40:55.346Z,36.59
2017-05-07T04:41:55.282Z,36.59
2017-05-07T04:42:55.223Z,36.79
2017-05-07T04:43:55.160Z,36.79
2017-05-07T04:44:55.095Z,36.4
2017-05-07T04:45:55.038Z,36.88
2017-05-07T04:46:54.974Z,36.98
2017-05-07T04:47:54.913Z,36.79
2017-05-07T04:48:54.852Z,36.79
2017-05-07T04:49:54.790Z,37.08
2017-05-07T04:50:54.974Z,36.88
2017-05-07T04:51:54.665Z,36.79
2017-05-07T04:52:54.601Z,36.69
2017-05-07T04:53:54.540Z,36.88
2017-05-07T04:54:54.487Z,36.79
2017-05-07T04:55:54.415Z,36.79
2017-05-07T04:56:54.354Z,36.79
2017-05-07T04:57:54.294Z,36.79
2017-05-07T04:58:54.230Z,36.79
2017-05-07T04:59:54.170Z,36.79
2017-05-07T05:00:54.106Z,36.69
2017-05-07T05:01:54.049Z,36.69
2017-05-07T05:02:53.982Z,36.88
2017-05-07T05:03:53.617Z,36.79
2017-05-07T05:04:53.857Z,36.79
2017-05-07T05:05:53.803Z,36.98
2017-05-07T05:06:53.731Z,36.88
2017-05-07T05:07:53.671Z,36.88
2017-05-07T05:08:53.609Z,36.88
2017-05-07T05:09:53.545Z,36.79
2017-05-07T05:10:53.487Z,36.77
2017-05-07T05:11:53.422Z,36.79
2017-05-07T05:12:53.361Z,36.69
2017-05-07T05:13:53.300Z,36.88
2017-05-07T05:14:52.936Z,36.88
2017-05-07T05:15:53.173Z,36.79
2017-05-07T05:16:53.121Z,36.79
2017-05-07T05:17:53.059Z,36.79
2017-05-07T05:18:52.988Z,36.79
2017-05-07T05:19:52.925Z,36.79
2017-05-07T05:20:52.864Z,36.5
2017-05-07T05:21:52.803Z,36.59
2017-05-07T05:22:52.740Z,36.59
2017-05-07T05:23:52.679Z,36.69
2017-05-07T05:24:52.620Z,36.69
2017-05-07T05:25:52.555Z,36.79
2017-05-07T05:26:52.490Z,36.69
2017-05-07T05:27:52.434Z,36.88
2017-05-07T05:28:52.369Z,36.88
2017-05-07T05:29:52.307Z,36.88
2017-05-07T05:30:52.250Z,36.88
2017-05-07T05:31:52.184Z,36.5
2017-05-07T05:32:52.123Z,36.69
2017-05-07T05:33:52.066Z,36.5
2017-05-07T05:34:51.997Z,36.79
2017-05-07T05:35:51.935Z,36.79
2017-05-07T05:36:51.871Z,36.88
2017-05-07T05:37:51.812Z,36.88
2017-05-07T05:38:51.750Z,36.59
2017-05-07T05:39:51.687Z,36.88
2017-05-07T05:40:51.623Z,36.5
2017-05-07T05:41:51.563Z,36.69
2017-05-07T05:42:51.502Z,36.79
2017-05-07T05:43:51.437Z,36.79
2017-05-07T05:44:51.376Z,36.59
2017-05-07T05:45:51.314Z,36.59
2017-05-07T05:46:51.253Z,36.5
2017-05-07T05:47:51.191Z,36.79
2017-05-07T05:48:51.127Z,36.5
2017-05-07T05:49:51.066Z,36.59
2017-05-07T05:50:51.004Z,36.59
2017-05-07T05:51:50.944Z,36.5
2017-05-07T05:52:50.882Z,36.69
2017-05-07T05:53:50.819Z,36.59
2017-05-07T05:54:50.758Z,36.79
2017-05-07T05:55:50.694Z,36.59
2017-05-07T05:56:50.632Z,36.5
2017-05-07T05:57:50.569Z,36.59
2017-05-07T05:58:50.507Z,36.5
2017-05-07T05:59:50.446Z,36.59
2017-05-07T06:00:50.385Z,36.4
2017-05-07T06:01:50.324Z,36.69
2017-05-07T06:02:49.958Z,36.59
2017-05-07T06:03:50.198Z,36.5
2017-05-07T06:04:50.136Z,36.57
2017-05-07T06:05:50.073Z,36.69
2017-05-07T06:06:50.013Z,36.59
2017-05-07T06:07:49.953Z,36.5
2017-05-07T06:08:49.889Z,36.69
2017-05-07T06:09:49.826Z,36.69
2017-05-07T06:10:49.766Z,36.59
2017-05-07T06:11:49.703Z,36.3
2017-05-07T06:12:49.637Z,36.69
2017-05-07T06:13:49.575Z,36.5
2017-05-07T06:14:49.518Z,36.4
2017-05-07T06:15:49.453Z,36.3
2017-05-07T06:16:49.391Z,36.59
2017-05-07T06:17:49.331Z,36.5
2017-05-07T06:18:49.269Z,36.5
2017-05-07T06:19:49.205Z,36.3
2017-05-07T06:20:49.146Z,36.21
2017-05-07T06:21:49.082Z,36.88
2017-05-07T06:22:49.021Z,36.5
2017-05-07T06:23:48.654Z,36.5
2017-05-07T06:24:48.896Z,36.69
2017-05-07T06:25:48.833Z,36.59
2017-05-07T06:26:48.772Z,36.3
2017-05-07T06:27:48.713Z,36.3
2017-05-07T06:28:48.649Z,36.59
2017-05-07T06:29:48.586Z,36.5
2017-05-07T06:30:48.523Z,36.21
2017-05-07T06:31:48.461Z,36.5
2017-05-07T06:32:48.404Z,36.4
2017-05-07T06:33:48.340Z,36.3
2017-05-07T06:34:48.276Z,36.38
2017-05-07T06:35:48.216Z,36.3
2017-05-07T06:36:48.180Z,36.3
2017-05-07T06:37:48.092Z,36.5
2017-05-07T06:38:48.030Z,36.69
2017-05-07T06:39:47.965Z,36.21
2017-05-07T06:40:47.912Z,36.3
2017-05-07T06:41:47.841Z,36.59
2017-05-07T06:42:47.781Z,36.5
2017-05-07T06:43:47.717Z,36.3
2017-05-07T06:44:47.654Z,36.5
2017-05-07T06:45:47.593Z,36.3
2017-05-07T06:46:47.534Z,36.4
2017-05-07T06:47:47.470Z,36.21
2017-05-07T06:48:47.410Z,36.21
2017-05-07T06:49:47.346Z,36.5
2017-05-07T06:50:47.282Z,36.5
2017-05-07T06:51:47.221Z,36.3
2017-05-07T06:52:47.158Z,36.4
2017-05-07T06:53:47.096Z,36.3
2017-05-07T06:54:47.036Z,36.5
2017-05-07T06:55:46.976Z,36.3
2017-05-07T06:56:46.910Z,36.3
2017-05-07T06:57:46.849Z,36.3
2017-05-07T06:58:46.786Z,36.5
2017-05-07T06:59:46.727Z,36.5
2017-05-07T07:00:46.663Z,36.5
2017-05-07T07:01:46.598Z,36.5
2017-05-07T07:02:46.539Z,36.69
2017-05-07T07:03:46.476Z,36.4
2017-05-07T07:04:46.416Z,36.5
2017-05-07T07:05:46.377Z,36.5
2017-05-07T07:06:45.988Z,36.5
2017-05-07T07:07:46.227Z,36.3
2017-05-07T07:08:46.166Z,36.69
2017-05-07T07:09:46.107Z,36.69
2017-05-07T07:10:46.044Z,36.3
2017-05-07T07:11:45.985Z,36.3
2017-05-07T07:12:45.918Z,36.3
2017-05-07T07:13:45.857Z,36.69
2017-05-07T07:14:45.796Z,36.59
2017-05-07T07:15:45.734Z,36.59
2017-05-07T07:16:45.701Z,36.5
2017-05-07T07:17:45.622Z,36.3
2017-05-07T07:18:45.546Z,36.3
2017-05-07T07:19:45.483Z,36.4
2017-05-07T07:20:45.422Z,36.4
2017-05-07T07:21:45.361Z,36.3
2017-05-07T07:22:45.297Z,36.3
2017-05-07T07:23:45.235Z,36.3
2017-05-07T07:24:45.175Z,36.59
2017-05-07T07:25:45.111Z,36.69
2017-05-07T07:26:45.053Z,36.59
2017-05-07T07:27:44.989Z,36.59
2017-05-07T07:28:44.926Z,36.3
2017-05-07T07:29:44.864Z,36.59
2017-05-07T07:30:44.501Z,36.3
2017-05-07T07:31:44.437Z,36.3
2017-05-07T07:32:44.681Z,36.59
2017-05-07T07:33:44.617Z,36.3
2017-05-07T07:34:44.555Z,36.3
2017-05-07T07:35:44.494Z,36.3
2017-05-07T07:36:44.430Z,36.59
2017-05-07T07:37:44.371Z,36.3
2017-05-07T07:38:44.305Z,36.3
2017-05-07T07:39:43.942Z,36.3
2017-05-07T07:40:44.186Z,36.3
2017-05-07T07:41:44.121Z,36.4
2017-05-07T07:42:44.060Z,36.59
2017-05-07T07:43:43.997Z,36.5
2017-05-07T07:44:43.934Z,36.5
2017-05-07T07:45:43.874Z,36.59
2017-05-07T07:46:43.810Z,36.4
2017-05-07T07:47:43.748Z,36.21
2017-05-07T07:48:43.685Z,36.3
2017-05-07T07:49:43.623Z,36.59
2017-05-07T07:50:43.260Z,36.21
2017-05-07T07:51:43.501Z,36.3
2017-05-07T07:52:43.437Z,36.3
2017-05-07T07:53:43.073Z,36.5
2017-05-07T07:54:43.012Z,36.3
2017-05-07T07:55:43.253Z,36.59
2017-05-07T07:56:43.191Z,36.5
2017-05-07T07:57:43.131Z,36.5
2017-05-07T07:58:43.069Z,36.5
2017-05-07T07:59:43.006Z,36.4
2017-05-07T08:00:44.281Z,36.5
2017-05-07T08:01:42.881Z,36.5
2017-05-07T08:02:42.820Z,36.5
2017-05-07T08:03:42.756Z,36.4
2017-05-07T08:04:42.708Z,36.5
2017-05-07T08:05:42.640Z,36.5
2017-05-07T08:06:42.269Z,36.3
2017-05-07T08:07:42.509Z,36.4
2017-05-07T08:08:42.145Z,36.5
2017-05-07T08:09:42.382Z,36.5
2017-05-07T08:10:42.323Z,36.4
2017-05-07T08:11:42.262Z,36.69
2017-05-07T08:12:42.198Z,36.5
2017-05-07T08:13:42.136Z,36.4
2017-05-07T08:14:42.081Z,36.4
2017-05-07T08:15:42.017Z,36.5
2017-05-07T08:16:41.950Z,36.59
2017-05-07T08:17:41.887Z,36.3
2017-05-07T08:18:41.823Z,36.5
2017-05-07T08:19:41.761Z,36.3
2017-05-07T08:20:41.400Z,36.5
2017-05-07T08:21:41.643Z,36.4
2017-05-07T08:22:41.578Z,36.3
2017-05-07T08:23:41.516Z,36.4
2017-05-07T08:24:41.151Z,36.5
2017-05-07T08:25:41.392Z,36.4
2017-05-07T08:26:41.328Z,36.3
2017-05-07T08:27:41.269Z,36.4
2017-05-07T08:28:41.202Z,36.3
2017-05-07T08:29:41.145Z,36.69
2017-05-07T08:30:41.083Z,36.3
2017-05-07T08:31:41.020Z,36.4
2017-05-07T08:32:40.956Z,36.3
2017-05-07T08:33:40.896Z,36.3
2017-05-07T08:34:40.833Z,36.3
2017-05-07T08:35:40.771Z,36.4
2017-05-07T08:36:40.711Z,36.4
2017-05-07T08:37:40.653Z,36.5
2017-05-07T08:38:40.586Z,36.3
2017-05-07T08:39:40.524Z,36.4
2017-05-07T08:40:40.464Z,36.3
2017-05-07T08:41:40.401Z,36.4
2017-05-07T08:42:40.340Z,36.4
2017-05-07T08:43:40.279Z,36.21
2017-05-07T08:44:40.212Z,36.4
2017-05-07T08:45:40.154Z,36.3
2017-05-07T08:46:40.092Z,36.3
2017-05-07T08:47:40.029Z,36.4
2017-05-07T08:48:39.965Z,36.4
2017-05-07T08:49:39.906Z,36.4
2017-05-07T08:50:39.843Z,36.21
2017-05-07T08:51:39.783Z,36.3
2017-05-07T08:52:39.718Z,36.3
2017-05-07T08:53:39.656Z,36.3
2017-05-07T08:54:39.598Z,36.4
2017-05-07T08:55:39.533Z,36.21
2017-05-07T08:56:39.471Z,36.3
2017-05-07T08:57:39.407Z,36.3
2017-05-07T08:58:39.347Z,36.4
2017-05-07T08:59:39.287Z,36.3
2017-05-07T09:00:39.223Z,36.3
2017-05-07T09:01:39.162Z,36.3
2017-05-07T09:02:39.097Z,36.5
2017-05-07T09:03:39.037Z,36.4
2017-05-07T09:04:38.973Z,36.3
2017-05-07T09:05:39.011Z,36.5
2017-05-07T09:06:38.852Z,36.5
2017-05-07T09:07:38.789Z,36.4
2017-05-07T09:08:38.726Z,36.3
2017-05-07T09:09:38.665Z,36.3
2017-05-07T09:10:38.604Z,36.3
2017-05-07T09:11:38.539Z,36.3
2017-05-07T09:12:38.477Z,36.5
2017-05-07T09:13:38.416Z,36.21
2017-05-07T09:14:38.355Z,36.21
2017-05-07T09:15:38.290Z,36.4
2017-05-07T09:16:38.232Z,36.21
2017-05-07T09:17:38.169Z,36.3
2017-05-07T09:18:38.105Z,36.3
2017-05-07T09:19:38.043Z,36.3
2017-05-07T09:20:37.982Z,36.21
2017-05-07T09:21:37.920Z,36.3
2017-05-07T09:22:37.860Z,36.3
2017-05-07T09:23:37.797Z,36.5
2017-05-07T09:24:37.735Z,36.21
2017-05-07T09:25:37.673Z,36.3
2017-05-07T09:26:37.610Z,36.21
2017-05-07T09:27:37.548Z,36.3
2017-05-07T09:28:37.488Z,36.21
2017-05-07T09:29:37.436Z,36.3
2017-05-07T09:30:37.368Z,36.3
2017-05-07T09:31:37.303Z,36.3
2017-05-07T09:32:37.240Z,36.21
2017-05-07T09:33:37.177Z,36.3
2017-05-07T09:34:37.114Z,36.21
2017-05-07T09:35:37.069Z,36.21
2017-05-07T09:36:36.993Z,36.21
2017-05-07T09:37:36.931Z,36.21
2017-05-07T09:38:36.565Z,36.3
2017-05-07T09:39:36.809Z,36.3
2017-05-07T09:40:36.745Z,36.21
2017-05-07T09:41:36.681Z,36.3
2017-05-07T09:42:36.618Z,36.21
2017-05-07T09:43:36.562Z,36.3
2017-05-07T09:44:36.497Z,36.21
2017-05-07T09:45:36.435Z,36.21
2017-05-07T09:46:36.374Z,36.3
2017-05-07T09:47:36.308Z,36.3
2017-05-07T09:48:36.248Z,36.3
2017-05-07T09:49:36.187Z,36.3
2017-05-07T09:50:36.124Z,36.21
2017-05-07T09:51:36.061Z,36.21
2017-05-07T09:52:36.000Z,36.21
2017-05-07T09:53:35.937Z,36.21
2017-05-07T09:54:35.879Z,36.3
2017-05-07T09:55:35.815Z,36.3
2017-05-07T09:56:35.754Z,36.21
2017-05-07T09:57:35.689Z,36.21
2017-05-07T09:58:35.626Z,36.3
2017-05-07T09:59:35.567Z,36.3
2017-05-07T10:00:35.502Z,36.21
2017-05-07T10:01:35.142Z,36.3
2017-05-07T10:02:35.379Z,36.21
2017-05-07T10:03:35.317Z,36.21
2017-05-07T10:04:35.258Z,36.21
2017-05-07T10:05:35.196Z,36.3
2017-05-07T10:06:35.131Z,36.21
2017-05-07T10:07:35.071Z,36.3
2017-05-07T10:08:35.008Z,36.01
2017-05-07T10:09:34.948Z,36.21
2017-05-07T10:10:34.886Z,36.21
2017-05-07T10:11:34.821Z,36.11
2017-05-07T10:12:34.759Z,36.21
2017-05-07T10:13:34.698Z,36.11
2017-05-07T10:14:34.639Z,35.92
2017-05-07T10:15:34.576Z,35.82
2017-05-07T10:16:34.510Z,36.01
2017-05-07T10:17:34.449Z,35.92
2017-05-07T10:18:34.389Z,36.11
2017-05-07T10:19:34.327Z,35.82
2017-05-07T10:20:34.268Z,36.21
2017-05-07T10:21:34.200Z,35.92
2017-05-07T10:22:34.142Z,35.92
2017-05-07T10:23:34.080Z,36.11
2017-05-07T10:24:34.020Z,35.92
2017-05-07T10:25:33.957Z,36.11
2017-05-07T10:26:33.896Z,35.92
2017-05-07T10:27:33.833Z,35.92
2017-05-07T10:28:33.767Z,35.92
2017-05-07T10:29:33.709Z,36.21
2017-05-07T10:30:33.647Z,36.01
2017-05-07T10:31:33.583Z,35.82
2017-05-07T10:32:33.520Z,36.01
2017-05-07T10:33:33.462Z,36.21
2017-05-07T10:34:33.398Z,35.82
2017-05-07T10:35:33.336Z,36.11
2017-05-07T10:36:33.279Z,36.11
2017-05-07T10:37:33.213Z,35.82
2017-05-07T10:38:33.152Z,36.11
2017-05-07T10:39:33.090Z,36.11
2017-05-07T10:40:33.028Z,36.01
2017-05-07T10:41:32.965Z,36.21
2017-05-07T10:42:32.903Z,36.11
2017-05-07T10:43:32.840Z,36.11
2017-05-07T10:44:32.780Z,36.01
2017-05-07T10:45:32.715Z,36.03
2017-05-07T10:46:32.655Z,36.22
2017-05-07T10:47:32.596Z,35.82
2017-05-07T10:48:32.531Z,36.21
2017-05-07T10:49:32.468Z,35.94
2017-05-07T10:50:32.507Z,35.92
2017-05-07T10:51:32.347Z,35.92
2017-05-07T10:52:32.282Z,35.92
2017-05-07T10:53:32.221Z,35.92
2017-05-07T10:54:32.161Z,35.94
2017-05-07T10:55:32.100Z,35.92
2017-05-07T10:56:32.040Z,35.92
2017-05-07T10:57:31.975Z,36.11
2017-05-07T10:58:31.913Z,36.01
2017-05-07T10:59:31.855Z,36.11
2017-05-07T11:00:31.788Z,36.01
2017-05-07T11:01:31.728Z,36.13
2017-05-07T11:02:31.363Z,36.11
2017-05-07T11:03:31.606Z,36.01
2017-05-07T11:04:31.543Z,35.82
2017-05-07T11:05:31.631Z,36.03
2017-05-07T11:06:31.423Z,36.11
2017-05-07T11:07:31.357Z,36.01
2017-05-07T11:08:31.024Z,35.82
2017-05-07T11:09:31.234Z,35.84
2017-05-07T11:10:31.175Z,36.01
2017-05-07T11:11:31.111Z,36.03
2017-05-07T11:12:31.047Z,35.84
2017-05-07T11:13:30.985Z,35.84
2017-05-07T11:14:30.927Z,36.03
2017-05-07T11:15:30.868Z,36.01
2017-05-07T11:16:30.802Z,36.03
2017-05-07T11:17:30.739Z,35.94
2017-05-07T11:18:30.682Z,35.74
2017-05-07T11:19:30.620Z,36.03
2017-05-07T11:20:30.554Z,36.03
2017-05-07T11:21:30.494Z,36.03
2017-05-07T11:22:30.436Z,35.92
2017-05-07T11:23:30.369Z,36.03
2017-05-07T11:24:30.309Z,35.84
2017-05-07T11:25:29.942Z,35.84
2017-05-07T11:26:30.184Z,35.74
2017-05-07T11:27:30.125Z,35.74
2017-05-07T11:28:30.061Z,35.55
2017-05-07T11:29:29.998Z,35.55
2017-05-07T11:30:30.041Z,35.55
2017-05-07T11:31:29.877Z,35.94
2017-05-07T11:32:29.813Z,35.55
2017-05-07T11:33:29.753Z,35.74
2017-05-07T11:34:29.689Z,35.74
2017-05-07T11:35:29.628Z,35.55
2017-05-07T11:36:29.566Z,35.94
2017-05-07T11:37:29.504Z,36.03
2017-05-07T11:38:29.440Z,35.94
2017-05-07T11:39:29.384Z,36.03
2017-05-07T11:40:29.318Z,36.03
2017-05-07T11:41:29.255Z,35.84
2017-05-07T11:42:29.201Z,35.94
2017-05-07T11:43:29.137Z,35.84
2017-05-07T11:44:29.073Z,35.94
2017-05-07T11:45:29.009Z,35.94
2017-05-07T11:46:28.647Z,35.94
2017-05-07T11:47:28.913Z,35.84
2017-05-07T11:48:28.827Z,35.84
2017-05-07T11:49:28.769Z,36.13
2017-05-07T11:50:28.700Z,36.03
2017-05-07T11:51:28.637Z,35.55
2017-05-07T11:52:28.578Z,35.94
2017-05-07T11:53:28.516Z,36.13
2017-05-07T11:54:28.457Z,36.03
2017-05-07T11:55:28.393Z,36.03
2017-05-07T11:56:28.328Z,35.74
2017-05-07T11:57:28.268Z,35.94
2017-05-07T11:58:28.208Z,35.64
2017-05-07T11:59:28.145Z,35.74
2017-05-07T12:00:28.085Z,36.03
2017-05-07T12:01:28.025Z,35.74
2017-05-07T12:02:27.958Z,36.03
2017-05-07T12:03:27.902Z,35.55
2017-05-07T12:04:27.837Z,35.84
2017-05-07T12:05:27.795Z,35.84
2017-05-07T12:06:27.718Z,35.74
2017-05-07T12:07:27.655Z,35.94
2017-05-07T12:08:27.592Z,35.74
2017-05-07T12:09:27.530Z,35.74
2017-05-07T12:10:27.466Z,35.84
2017-05-07T12:11:27.406Z,35.64
2017-05-07T12:12:27.344Z,35.84
2017-05-07T12:13:27.284Z,35.74
2017-05-07T12:14:27.219Z,35.64
2017-05-07T12:15:27.158Z,35.74
2017-05-07T12:16:27.098Z,35.64
2017-05-07T12:17:27.037Z,35.74
2017-05-07T12:18:26.973Z,35.84
2017-05-07T12:19:26.912Z,35.74
2017-05-07T12:20:26.852Z,35.84
2017-05-07T12:21:26.790Z,35.64
2017-05-07T12:22:26.727Z,35.74
2017-05-07T12:23:26.667Z,35.64
2017-05-07T12:24:26.605Z,35.74
2017-05-07T12:25:26.548Z,35.84
2017-05-07T12:26:26.484Z,35.74
2017-05-07T12:27:26.422Z,35.84
2017-05-07T12:28:26.357Z,35.74
2017-05-07T12:29:26.297Z,35.94
2017-05-07T12:30:26.243Z,35.94
2017-05-07T12:31:26.174Z,35.64
2017-05-07T12:32:25.814Z,35.74
2017-05-07T12:33:25.746Z,35.74
2017-05-07T12:34:25.685Z,35.74
2017-05-07T12:35:25.927Z,35.74
2017-05-07T12:36:25.867Z,35.74
2017-05-07T12:37:25.804Z,35.84
2017-05-07T12:38:25.739Z,35.64
2017-05-07T12:39:25.681Z,35.64
2017-05-07T12:40:25.618Z,35.64
2017-05-07T12:41:25.561Z,35.84
2017-05-07T12:42:25.493Z,35.64
2017-05-07T12:43:25.433Z,35.55
2017-05-07T12:44:25.370Z,35.84
2017-05-07T12:45:25.311Z,35.84
2017-05-07T12:46:25.250Z,35.84
2017-05-07T12:47:25.188Z,35.84
2017-05-07T12:48:25.127Z,35.74
2017-05-07T12:49:25.064Z,35.74
2017-05-07T12:50:25.003Z,35.84
2017-05-07T12:51:24.941Z,35.55
2017-05-07T12:52:24.879Z,35.55
2017-05-07T12:53:24.818Z,35.74
2017-05-07T12:54:24.755Z,35.84
2017-05-07T12:55:24.693Z,35.55
2017-05-07T12:56:24.633Z,35.55
2017-05-07T12:57:24.572Z,35.45
2017-05-07T12:58:24.512Z,35.74